METAR Data
IDs: Format: Raw Decoded Include TAF

Data at: 1819 UTC 26 Oct 2021

Region: TOP
KATL 261752Z 32013G23KT 10SM CLR 18/08 A2991 RMK AO2 SLP124 T01830078 10183 20117 58013

KBOS 261754Z 06019G24KT 6SM BR FEW006 SCT015 OVC065 16/14 A2956 RMK AO2 PK WND 06026/1743 SLP008 60005 T01560139 10156 20139 58028

KBWI 261754Z 29017G32KT 10SM SCT038 BKN060 BKN075 17/08 A2950 RMK AO2 PK WND 26036/1658 SLP990 60000 T01670078 10200 20156 56002

KCLE 261751Z 33014G22KT 10SM SCT029 OVC036 10/03 A2988 RMK AO2 SLP136 60004 T01000033 10100 20083 58007

KCLT 261752Z 32013G20KT 10SM FEW060 22/06 A2978 RMK AO2 SLP077 T02170061 10222 20122 58018

KCVG 261752Z 33011KT 10SM SCT039 13/03 A3001 RMK AO2 SLP160 T01280028 10133 20083 58007

KDCA 261752Z 31020G37KT 10SM SCT045 SCT110 18/07 A2955 RMK AO2 PK WND 30038/1725 SLP006 T01780072 10189 20156 51001

KDEN 261753Z 21023G32KT 10SM SCT100 SCT220 24/M03 A2942 RMK AO2 PK WND 20037/1714 SLP892 T02441028 10244 20100 56024

KDFW 261753Z 15013G21KT 10SM FEW023 BKN033 BKN250 27/21 A2980 RMK AO2 SLP085 T02670206 10267 20206 58029

KDTW 261753Z 33013G20KT 10SM BKN033 09/02 A2998 RMK AO2 SLP154 T00940017 10106 20061 58010

KEWR 261756Z 22010KT 9SM -RA FEW008 BKN016 OVC030 16/13 A2935 RMK AO2 P0000 T01610128

KFLL 261753Z 25012G19KT 10SM FEW027 SCT060 SCT250 31/26 A2986

KIAD 261752Z 30022G35KT 10SM FEW038 SCT085 17/07 A2958 RMK AO2 PK WND 29040/1653 SLP015 60000 T01670067 10183 20150 53002 $

KIAH 261753Z 15010KT 10SM SCT024 SCT040 BKN250 29/22 A2988 RMK AO2 SLP119 T02940222 10294 20233 58022

KJFK 261751Z 23009KT 10SM BKN011 OVC019 16/13 A2937 RMK AO2 SLP946 60031 T01610133 10183 20150 50011

KLAS 261756Z 21005KT 10SM CLR 16/M02 A3007 RMK AO2 SLP176 T01611017 10161 20106 52020

KLAX 261753Z 06005KT 10SM FEW010 19/10 A3012 RMK AO2 SLP197 T01890100 10189 20117 51012 $

KLGA 261751Z 20013G19KT 10SM BKN021 BKN100 OVC200 17/11 A2934 RMK AO2 SLP936 60042 T01670111 10178 20139 50006

KMCO 261753Z 27013KT 10SM SCT044 30/18 A2985 RMK AO2 SLP108 T03000183 10306 20233 58021

KMDW 261753Z 03007KT 10SM FEW027 OVC039 12/04 A3009 RMK AO2 SLP191 T01220044 10133 20067 58010

KMEM 261754Z VRB06KT 10SM CLR 18/09 A3003 RMK AO2 SLP167 T01830089 10183 20094 58021

KMIA 261753Z 26007KT 10SM FEW030 SCT095 BKN250 31/24 A2988 RMK AO2 RAE00 SLP119 P0000 60001 T03060244 10311 20261 58025

KMSP 261753Z 15018G31KT 10SM FEW250 12/01 A3001 RMK AO2 PK WND 14031/1752 SLP168 T01170006 10117 20039 58033

KORD 261751Z 03009KT 10SM FEW031 BKN046 13/06 A3009 RMK AO2 SLP189 T01330056 10133 20056 58009 $

KPDX 261816Z 18011G17KT 10SM OVC029 13/08 A2979 RMK AO2 T01330078

KPHL 261754Z 27017G25KT 10SM SCT023 OVC036 18/13 A2939 RMK AO2 SLP951 60000 T01830133 10189 20156 56016

KPHX 261751Z 25010KT 10SM FEW070 21/03 A2996 RMK AO2 SLP132 T02060033 10211 20156 51011

KPIT 261751Z 31014KT 10SM FEW013 BKN021 OVC045 08/05 A2980 RMK AO2 PK WND 32029/1736 SLP101 60000 T00830050 10089 20072 58006

KSAN 261751Z 20006KT 10SM BKN028 19/11 A3014 RMK AO2 SLP204 T01890111 10189 20133 51014

KSEA 261753Z 12010KT 10SM BKN039 OVC060 11/07 A2968 RMK AO2 RAE1656B40E51 SLP058 P0000 60004 T01110072 10111 20089 58016

KSFO 261756Z 09007KT 10SM BKN023 OVC029 16/11 A3022 RMK AO2 SLP234 T01560111 10156 20128 51020

KSLC 261754Z 31013KT 10SM R16L/5500VP6000FT FEW027 BKN035 BKN080 07/02 A2998 RMK AO2 SLP146 60009 T00670017 10072 20033 51022

KSTL 261751Z 11007KT 10SM FEW035 15/06 A3007 RMK AO2 SLP185 T01500056 10150 20044 58019

KTPA 261753Z 29011KT 10SM SCT035 SCT220 30/22 A2989 RMK AO2 SLP121 T03000217 10306 20261 58020